createdAt,value
2022-07-31T00:00:56.420Z,24.50
2022-07-31T00:03:26.804Z,24.50
2022-07-31T00:05:57.096Z,24.50
2022-07-31T00:08:30.532Z,24.40
2022-07-31T00:11:00.976Z,24.40
2022-07-31T00:13:57.456Z,24.30
2022-07-31T00:16:24.208Z,24.30
2022-07-31T00:18:54.664Z,24.30
2022-07-31T00:21:25.028Z,24.20
2022-07-31T00:23:55.356Z,24.20
2022-07-31T00:26:26.069Z,24.20
2022-07-31T00:28:56.349Z,24.10
2022-07-31T00:31:29.240Z,24.10
2022-07-31T00:33:59.541Z,24.10
2022-07-31T00:36:30.194Z,24.00
2022-07-31T00:39:02.587Z,24.00
2022-07-31T00:41:42.542Z,24.00
2022-07-31T00:44:13.096Z,24.00
2022-07-31T00:46:46.125Z,24.00
2022-07-31T00:49:16.512Z,23.90
2022-07-31T00:51:47.062Z,23.80
2022-07-31T00:54:22.918Z,23.80
2022-07-31T00:56:54.384Z,23.80
2022-07-31T00:59:25.115Z,23.70
2022-07-31T01:01:59.319Z,23.70
2022-07-31T01:04:31.119Z,23.70
2022-07-31T01:07:02.216Z,23.70
2022-07-31T01:09:33.330Z,23.70
2022-07-31T01:12:09.081Z,23.70
2022-07-31T01:14:51.231Z,23.70
2022-07-31T01:17:26.050Z,23.70
2022-07-31T01:19:56.890Z,23.60
2022-07-31T01:22:40.716Z,23.50
2022-07-31T01:25:16.501Z,23.40
2022-07-31T01:28:13.141Z,23.30
2022-07-31T01:31:10.763Z,23.20
2022-07-31T01:33:51.269Z,23.20
2022-07-31T01:36:25.889Z,23.20
2022-07-31T01:38:58.685Z,23.30
2022-07-31T01:41:35.456Z,23.30
2022-07-31T01:44:07.360Z,23.20
2022-07-31T01:46:48.019Z,23.20
2022-07-31T01:49:21.956Z,23.20
2022-07-31T01:51:53.552Z,23.20
2022-07-31T01:54:27.124Z,23.20
2022-07-31T01:57:01.423Z,23.20
2022-07-31T01:59:33.599Z,23.10
2022-07-31T02:02:15.797Z,23.10
2022-07-31T02:04:50.528Z,23.00
2022-07-31T02:07:22.881Z,23.00
2022-07-31T02:09:59.119Z,23.00
2022-07-31T02:12:35.764Z,22.90
2022-07-31T02:15:09.248Z,22.90
2022-07-31T02:17:46.466Z,22.90
2022-07-31T02:20:38.080Z,22.90
2022-07-31T02:23:08.822Z,22.90
2022-07-31T02:25:40.607Z,22.90
2022-07-31T02:28:15.370Z,22.90
2022-07-31T02:30:47.785Z,22.90
2022-07-31T02:33:23.312Z,22.80
2022-07-31T02:35:56.775Z,22.70
2022-07-31T02:38:30.148Z,22.70
2022-07-31T02:41:05.180Z,22.80
2022-07-31T02:43:37.169Z,22.70
2022-07-31T02:46:18.039Z,22.70
2022-07-31T02:48:52.061Z,22.70
2022-07-31T02:51:24.447Z,22.60
2022-07-31T02:53:57.129Z,22.60
2022-07-31T02:56:32.005Z,22.60
2022-07-31T02:59:02.918Z,22.50
2022-07-31T03:01:44.407Z,22.50
2022-07-31T03:04:20.614Z,22.50
2022-07-31T03:06:51.403Z,22.50
2022-07-31T03:09:21.962Z,22.40
2022-07-31T03:12:01.886Z,22.40
2022-07-31T03:14:37.280Z,22.40
2022-07-31T03:17:09.563Z,22.40
2022-07-31T03:19:42.818Z,22.30
2022-07-31T03:22:15.448Z,22.40
2022-07-31T03:24:46.640Z,22.30
2022-07-31T03:27:17.901Z,22.40
2022-07-31T03:29:48.531Z,22.40
2022-07-31T03:32:19.774Z,22.40
2022-07-31T03:34:52.945Z,22.30
2022-07-31T03:37:26.197Z,22.30
2022-07-31T03:39:56.567Z,22.40
2022-07-31T03:42:27.904Z,22.30
2022-07-31T03:44:59.135Z,22.30
2022-07-31T03:47:29.463Z,22.30
2022-07-31T03:50:07.242Z,22.20
2022-07-31T03:52:40.327Z,22.10
2022-07-31T03:55:12.140Z,22.10
2022-07-31T03:57:43.106Z,22.20
2022-07-31T04:00:18.063Z,22.20
2022-07-31T04:02:48.979Z,22.10
2022-07-31T04:05:47.862Z,22.10
2022-07-31T04:08:18.894Z,22.10
2022-07-31T04:10:49.605Z,22.10
2022-07-31T04:13:22.963Z,22.00
2022-07-31T04:15:54.349Z,22.00
2022-07-31T04:18:24.707Z,22.00
2022-07-31T04:20:57.974Z,21.90
2022-07-31T04:23:32.299Z,21.90
2022-07-31T04:26:26.353Z,21.80
2022-07-31T04:29:06.422Z,21.90
2022-07-31T04:31:37.318Z,21.90
2022-07-31T04:34:12.979Z,21.90
2022-07-31T04:36:45.979Z,21.80
2022-07-31T04:39:16.523Z,21.80
2022-07-31T04:41:47.264Z,21.90
2022-07-31T04:44:17.651Z,21.90
2022-07-31T04:47:08.414Z,21.80
2022-07-31T04:49:46.518Z,21.90
2022-07-31T04:52:22.440Z,21.80
2022-07-31T04:54:54.045Z,21.80
2022-07-31T04:57:24.529Z,21.80
2022-07-31T04:59:59.933Z,21.80
2022-07-31T05:02:31.909Z,21.80
2022-07-31T05:05:02.396Z,21.80
2022-07-31T05:07:43.641Z,21.80
2022-07-31T05:10:49.228Z,21.70
2022-07-31T05:13:19.665Z,21.70
2022-07-31T05:15:50.155Z,21.70
2022-07-31T05:18:20.898Z,21.70
2022-07-31T05:20:51.387Z,21.70
2022-07-31T05:23:43.600Z,21.60
2022-07-31T05:26:26.441Z,21.50
2022-07-31T05:29:02.402Z,21.50
2022-07-31T05:31:32.792Z,21.60
2022-07-31T05:34:03.285Z,21.60
2022-07-31T05:36:33.745Z,21.60
2022-07-31T05:39:06.765Z,21.60
2022-07-31T05:41:43.322Z,21.60
2022-07-31T05:44:20.164Z,21.60
2022-07-31T05:49:24.230Z,21.60
2022-07-31T05:51:57.502Z,21.60
2022-07-31T05:54:30.438Z,21.60
2022-07-31T05:57:33.668Z,21.60
2022-07-31T06:00:05.941Z,21.70
2022-07-31T06:02:42.314Z,21.70
2022-07-31T06:05:42.364Z,21.70
2022-07-31T06:08:13.656Z,21.60
2022-07-31T06:10:50.984Z,21.60
2022-07-31T06:13:21.310Z,21.70
2022-07-31T06:15:51.983Z,21.60
2022-07-31T06:18:22.319Z,21.50
2022-07-31T06:20:53.522Z,21.60
2022-07-31T06:23:29.640Z,21.70
2022-07-31T06:26:14.446Z,21.70
2022-07-31T06:28:47.845Z,21.70
2022-07-31T06:31:22.673Z,21.70
2022-07-31T06:33:57.101Z,21.70
2022-07-31T06:36:32.046Z,21.80
2022-07-31T06:39:07.776Z,21.80
2022-07-31T06:41:59.531Z,21.90
2022-07-31T06:44:33.905Z,21.80
2022-07-31T06:47:42.920Z,21.90
2022-07-31T06:50:27.045Z,21.90
2022-07-31T06:53:10.400Z,22.00
2022-07-31T06:55:44.257Z,22.00
2022-07-31T06:58:17.934Z,22.00
2022-07-31T07:00:48.592Z,22.00
2022-07-31T07:03:20.774Z,22.00
2022-07-31T07:05:51.069Z,22.00
2022-07-31T07:08:21.758Z,22.10
2022-07-31T07:10:54.233Z,22.00
2022-07-31T07:13:45.755Z,22.10
2022-07-31T07:16:18.332Z,22.10
2022-07-31T07:18:48.991Z,22.10
2022-07-31T07:21:20.196Z,22.20
2022-07-31T07:23:51.081Z,22.30
2022-07-31T07:26:47.408Z,22.30
2022-07-31T07:29:20.504Z,22.30
2022-07-31T07:31:50.901Z,22.30
2022-07-31T07:34:21.283Z,22.40
2022-07-31T07:36:51.887Z,22.20
2022-07-31T07:39:28.256Z,22.30
2022-07-31T07:41:59.658Z,22.40
2022-07-31T07:44:33.017Z,22.40
2022-07-31T07:47:03.554Z,22.40
2022-07-31T07:49:36.208Z,22.40
2022-07-31T07:52:29.657Z,22.50
2022-07-31T07:55:22.709Z,22.60
2022-07-31T07:58:22.104Z,22.60
2022-07-31T08:01:15.981Z,22.60
2022-07-31T08:03:52.334Z,22.70
2022-07-31T08:06:24.216Z,22.70
2022-07-31T08:08:54.817Z,22.70
2022-07-31T08:11:44.083Z,22.80
2022-07-31T08:14:23.434Z,22.70
2022-07-31T08:17:28.053Z,22.70
2022-07-31T08:19:58.533Z,22.70
2022-07-31T08:22:28.921Z,22.90
2022-07-31T08:24:59.800Z,22.90
2022-07-31T08:27:39.548Z,22.90
2022-07-31T08:30:12.878Z,22.90
2022-07-31T08:32:46.018Z,22.90
2022-07-31T08:35:35.084Z,23.10
2022-07-31T08:38:05.436Z,23.20
2022-07-31T08:40:43.994Z,23.30
2022-07-31T08:46:08.233Z,23.50
2022-07-31T08:48:45.296Z,23.50
2022-07-31T08:51:16.659Z,23.50
2022-07-31T08:54:14.165Z,23.50
2022-07-31T08:56:46.665Z,23.50
2022-07-31T08:59:19.899Z,23.50
2022-07-31T09:01:51.708Z,23.70
2022-07-31T09:04:26.658Z,23.60
2022-07-31T09:07:00.152Z,23.70
2022-07-31T09:09:45.393Z,23.80
2022-07-31T09:12:32.457Z,23.90
2022-07-31T09:15:21.880Z,23.90
2022-07-31T09:17:54.027Z,23.90
2022-07-31T09:20:30.232Z,23.90
2022-07-31T09:23:09.695Z,24.00
2022-07-31T09:25:55.166Z,23.90
2022-07-31T09:28:36.423Z,24.00
2022-07-31T09:31:12.004Z,24.10
2022-07-31T09:34:01.019Z,24.10
2022-07-31T09:36:40.000Z,24.20
2022-07-31T09:39:32.878Z,24.30
2022-07-31T09:42:39.809Z,24.50
2022-07-31T09:45:25.824Z,24.50
2022-07-31T09:48:08.461Z,24.70
2022-07-31T09:50:49.127Z,24.80
2022-07-31T09:53:22.704Z,24.70
2022-07-31T09:55:58.873Z,24.70
2022-07-31T09:58:29.471Z,24.80
2022-07-31T10:01:00.249Z,24.70
2022-07-31T10:03:31.138Z,24.70
2022-07-31T10:06:02.949Z,24.80
2022-07-31T10:08:40.782Z,24.80
2022-07-31T10:11:31.772Z,24.70
2022-07-31T10:14:24.383Z,24.80
2022-07-31T10:16:57.939Z,25.10
2022-07-31T10:19:49.117Z,25.40
2022-07-31T10:22:33.976Z,25.60
2022-07-31T10:25:09.193Z,25.70
2022-07-31T10:27:40.573Z,25.80
2022-07-31T10:30:15.837Z,25.50
2022-07-31T10:32:50.418Z,25.50
2022-07-31T10:35:30.008Z,25.50
2022-07-31T10:38:20.814Z,25.40
2022-07-31T10:41:06.044Z,25.50
2022-07-31T10:43:46.712Z,25.60
2022-07-31T10:46:42.984Z,25.70
2022-07-31T10:49:48.452Z,25.70
2022-07-31T10:52:31.868Z,25.50
2022-07-31T10:55:25.550Z,25.60
2022-07-31T10:58:22.128Z,25.60
2022-07-31T11:00:56.040Z,25.60
2022-07-31T11:03:44.845Z,25.50
2022-07-31T11:06:27.121Z,25.50
2022-07-31T11:09:24.930Z,25.60
2022-07-31T11:12:00.276Z,25.80
2022-07-31T11:14:51.689Z,26.10
2022-07-31T11:18:22.483Z,25.90
2022-07-31T11:20:35.382Z,26.10
2022-07-31T11:23:08.352Z,26.30
2022-07-31T11:25:40.110Z,26.50
2022-07-31T11:28:19.398Z,26.40
2022-07-31T11:30:57.813Z,26.30
2022-07-31T11:33:42.032Z,26.30
2022-07-31T11:36:15.688Z,26.30
2022-07-31T11:38:47.955Z,26.10
2022-07-31T11:41:22.890Z,26.10
2022-07-31T11:43:57.703Z,26.10
2022-07-31T11:46:32.219Z,26.00
2022-07-31T11:49:04.132Z,26.30
2022-07-31T11:51:34.653Z,26.20
2022-07-31T11:54:04.866Z,26.30
2022-07-31T11:56:36.433Z,26.30
2022-07-31T11:59:07.109Z,26.20
2022-07-31T12:01:40.846Z,26.10
2022-07-31T12:04:11.419Z,26.10
2022-07-31T12:06:42.301Z,26.20
2022-07-31T12:10:02.425Z,26.10
2022-07-31T12:12:03.843Z,26.30
2022-07-31T12:14:39.177Z,26.20
2022-07-31T12:17:23.215Z,26.40
2022-07-31T12:19:57.734Z,26.50
2022-07-31T12:22:29.075Z,26.80
2022-07-31T12:25:08.589Z,26.90
2022-07-31T12:27:39.862Z,27.20
2022-07-31T12:30:20.378Z,27.10
2022-07-31T12:32:53.398Z,27.30
2022-07-31T12:35:23.775Z,27.30
2022-07-31T12:37:54.519Z,27.30
2022-07-31T12:40:27.190Z,27.10
2022-07-31T12:43:00.748Z,26.90
2022-07-31T12:45:38.961Z,26.80
2022-07-31T12:48:14.180Z,27.10
2022-07-31T12:50:44.444Z,27.10
2022-07-31T12:53:16.739Z,27.10
2022-07-31T12:55:47.114Z,27.20
2022-07-31T12:58:17.598Z,27.00
2022-07-31T13:00:47.887Z,26.90
2022-07-31T13:03:20.964Z,26.90
2022-07-31T13:05:52.225Z,26.90
2022-07-31T13:08:22.802Z,26.90
2022-07-31T13:10:53.853Z,27.00
2022-07-31T13:13:25.757Z,27.10
2022-07-31T13:15:56.082Z,27.10
2022-07-31T13:18:30.231Z,27.00
2022-07-31T13:21:00.703Z,26.90
2022-07-31T13:23:31.025Z,26.90
2022-07-31T13:26:02.652Z,26.90
2022-07-31T13:28:32.987Z,26.90
2022-07-31T13:31:03.280Z,26.90
2022-07-31T13:33:37.999Z,26.80
2022-07-31T13:36:09.003Z,26.80
2022-07-31T13:38:39.467Z,26.80
2022-07-31T13:41:24.670Z,26.90
2022-07-31T13:43:59.838Z,26.90
2022-07-31T13:46:32.244Z,26.80
2022-07-31T13:49:08.657Z,27.00
2022-07-31T13:51:44.660Z,27.10
2022-07-31T13:54:16.652Z,27.00
2022-07-31T13:56:46.973Z,27.40
2022-07-31T13:59:17.697Z,27.30
2022-07-31T14:02:13.004Z,27.30
2022-07-31T14:04:44.602Z,27.10
2022-07-31T14:07:15.150Z,27.00
2022-07-31T14:09:47.136Z,27.00
2022-07-31T14:12:25.696Z,27.10
2022-07-31T14:14:56.138Z,27.10
2022-07-31T14:17:26.467Z,27.30
2022-07-31T14:19:59.609Z,27.20
2022-07-31T14:22:30.027Z,27.20
2022-07-31T14:25:00.700Z,27.30
2022-07-31T14:27:31.131Z,27.30
2022-07-31T14:30:03.854Z,27.10
2022-07-31T14:32:34.469Z,27.20
2022-07-31T14:35:08.784Z,27.10
2022-07-31T14:37:39.182Z,27.00
2022-07-31T14:40:10.605Z,27.00
2022-07-31T14:42:41.949Z,27.00
2022-07-31T14:45:14.297Z,27.00
2022-07-31T14:47:46.514Z,27.10
2022-07-31T14:50:20.167Z,27.10
2022-07-31T14:52:53.022Z,27.10
2022-07-31T14:55:29.126Z,27.20
2022-07-31T14:57:59.525Z,27.00
2022-07-31T15:00:30.026Z,27.10
2022-07-31T15:03:00.340Z,27.10
2022-07-31T15:06:39.558Z,27.10
2022-07-31T15:08:23.898Z,27.00
2022-07-31T15:10:54.369Z,27.00
2022-07-31T15:13:25.183Z,27.00
2022-07-31T15:15:55.708Z,27.00
2022-07-31T15:18:26.079Z,27.00
2022-07-31T15:20:59.244Z,27.00
2022-07-31T15:23:35.664Z,27.00
2022-07-31T15:26:07.147Z,26.80
2022-07-31T15:28:37.847Z,26.70
2022-07-31T15:31:09.016Z,26.70
2022-07-31T15:33:41.777Z,26.60
2022-07-31T15:36:15.421Z,26.60
2022-07-31T15:38:47.842Z,26.60
2022-07-31T15:41:18.862Z,26.50
2022-07-31T15:43:49.668Z,26.50
2022-07-31T15:46:21.799Z,26.50
2022-07-31T15:48:52.385Z,26.60
2022-07-31T15:51:25.469Z,26.50
2022-07-31T15:53:56.071Z,26.40
2022-07-31T15:56:26.655Z,26.50
2022-07-31T15:58:58.019Z,26.40
2022-07-31T16:01:28.391Z,26.30
2022-07-31T16:03:58.949Z,26.30
2022-07-31T16:06:34.836Z,26.40
2022-07-31T16:09:08.887Z,26.20
2022-07-31T16:12:04.710Z,26.20
2022-07-31T16:14:29.751Z,26.30
2022-07-31T16:17:00.460Z,26.30
2022-07-31T16:19:33.767Z,26.40
2022-07-31T16:22:10.692Z,26.30
2022-07-31T16:24:41.296Z,26.30
2022-07-31T16:27:11.890Z,26.40
2022-07-31T16:29:58.801Z,26.30
2022-07-31T16:32:32.057Z,26.30
2022-07-31T16:35:02.696Z,26.20
2022-07-31T16:37:50.411Z,26.30
2022-07-31T16:40:28.789Z,26.30
2022-07-31T16:43:47.902Z,26.30
2022-07-31T16:45:54.424Z,26.20
2022-07-31T16:48:25.232Z,26.20
2022-07-31T16:50:55.549Z,26.10
2022-07-31T16:54:10.457Z,26.10
2022-07-31T16:56:21.553Z,26.10
2022-07-31T16:58:54.430Z,26.10
2022-07-31T17:01:57.218Z,26.00
2022-07-31T17:04:17.842Z,25.90
2022-07-31T17:06:48.432Z,25.90
2022-07-31T17:09:21.649Z,25.90
2022-07-31T17:11:54.013Z,25.90
2022-07-31T17:14:26.625Z,25.90
2022-07-31T17:16:59.248Z,26.00
2022-07-31T17:19:43.029Z,26.00
2022-07-31T17:22:18.747Z,26.00
2022-07-31T17:24:53.270Z,26.00
2022-07-31T17:27:24.730Z,25.90
2022-07-31T17:29:56.962Z,25.90
2022-07-31T17:32:27.585Z,25.80
2022-07-31T17:34:59.630Z,25.80
2022-07-31T17:37:30.294Z,25.70
2022-07-31T17:40:21.576Z,25.60
2022-07-31T17:42:56.427Z,25.50
2022-07-31T17:45:50.674Z,25.50
2022-07-31T17:48:19.967Z,25.50
2022-07-31T17:50:54.576Z,25.50
2022-07-31T17:53:54.801Z,25.40
2022-07-31T17:56:20.400Z,25.40
2022-07-31T17:58:50.743Z,25.40
2022-07-31T18:01:25.613Z,25.30
2022-07-31T18:03:59.061Z,25.30
2022-07-31T18:06:29.417Z,25.30
2022-07-31T18:09:01.900Z,25.30
2022-07-31T18:11:35.018Z,25.40
2022-07-31T18:14:07.290Z,25.20
2022-07-31T18:16:38.018Z,25.20
2022-07-31T18:19:10.212Z,25.10
2022-07-31T18:21:43.529Z,25.20
2022-07-31T18:24:13.780Z,25.00
2022-07-31T18:26:46.847Z,25.00
2022-07-31T18:29:17.299Z,25.00
2022-07-31T18:31:48.118Z,25.00
2022-07-31T18:34:18.509Z,24.90
2022-07-31T18:36:54.366Z,24.90
2022-07-31T18:39:26.136Z,24.90
2022-07-31T18:41:59.094Z,24.90
2022-07-31T18:44:29.413Z,24.90
2022-07-31T18:46:59.811Z,24.90
2022-07-31T18:51:00.119Z,24.70
2022-07-31T18:52:20.997Z,24.60
2022-07-31T18:54:54.367Z,24.70
2022-07-31T18:57:27.645Z,24.70
2022-07-31T18:59:58.158Z,24.60
2022-07-31T19:02:28.596Z,24.70
2022-07-31T19:04:59.148Z,24.50
2022-07-31T19:07:35.987Z,24.50
2022-07-31T19:10:08.052Z,24.60
2022-07-31T19:12:41.084Z,24.60
2022-07-31T19:15:12.436Z,24.70
2022-07-31T19:17:45.317Z,24.50
2022-07-31T19:20:41.104Z,24.50
2022-07-31T19:23:12.578Z,24.50
2022-07-31T19:26:02.219Z,24.30
2022-07-31T19:28:43.497Z,24.40
2022-07-31T19:31:14.514Z,24.30
2022-07-31T19:33:44.965Z,24.30
2022-07-31T19:36:15.620Z,24.30
2022-07-31T19:38:47.909Z,24.20
2022-07-31T19:41:18.231Z,24.20
2022-07-31T19:43:51.233Z,24.20
2022-07-31T19:46:21.663Z,24.20
2022-07-31T19:48:52.212Z,24.20
2022-07-31T19:51:22.720Z,24.20
2022-07-31T19:53:53.091Z,24.20
2022-07-31T19:56:23.375Z,24.10
2022-07-31T19:58:56.454Z,24.10
2022-07-31T20:01:27.847Z,24.10
2022-07-31T20:04:00.072Z,24.10
2022-07-31T20:06:30.599Z,24.00
2022-07-31T20:09:00.954Z,24.00
2022-07-31T20:11:31.309Z,24.00
2022-07-31T20:14:04.277Z,23.90
2022-07-31T20:16:35.052Z,23.90
2022-07-31T20:19:07.285Z,23.90
2022-07-31T20:21:37.908Z,23.90
2022-07-31T20:24:09.705Z,23.90
2022-07-31T20:26:40.310Z,24.00
2022-07-31T20:29:13.500Z,24.00
2022-07-31T20:31:43.852Z,24.00
2022-07-31T20:34:14.237Z,23.80
2022-07-31T20:36:47.710Z,23.80
2022-07-31T20:39:18.227Z,23.80
2022-07-31T20:41:48.569Z,23.80
2022-07-31T20:44:21.658Z,23.80
2022-07-31T20:46:55.705Z,23.80
2022-07-31T20:49:35.384Z,23.80
2022-07-31T20:52:07.157Z,23.80
2022-07-31T20:54:38.071Z,23.80
2022-07-31T20:57:08.633Z,23.80
2022-07-31T20:59:41.965Z,23.90
2022-07-31T21:02:12.351Z,23.80
2022-07-31T21:04:43.598Z,23.90
2022-07-31T21:07:13.917Z,23.80
2022-07-31T21:09:44.481Z,23.80
2022-07-31T21:12:14.775Z,23.70
2022-07-31T21:14:47.833Z,23.70
2022-07-31T21:17:18.213Z,23.80
2022-07-31T21:19:48.796Z,23.80
2022-07-31T21:22:19.049Z,23.70
2022-07-31T21:24:50.154Z,23.70
2022-07-31T21:27:21.130Z,23.80
2022-07-31T21:29:56.911Z,23.60
2022-07-31T21:32:28.041Z,23.70
2022-07-31T21:34:59.109Z,23.70
2022-07-31T21:37:39.222Z,23.60
2022-07-31T21:40:12.531Z,23.60
2022-07-31T21:42:43.892Z,23.60
2022-07-31T21:45:18.420Z,23.60
2022-07-31T21:47:53.163Z,23.60
2022-07-31T21:50:29.169Z,23.60
2022-07-31T21:52:59.822Z,23.50
2022-07-31T21:55:30.356Z,23.60
2022-07-31T21:58:00.782Z,23.60
2022-07-31T22:00:34.397Z,23.50
2022-07-31T22:03:06.267Z,23.40
2022-07-31T22:05:49.725Z,23.30
2022-07-31T22:08:20.348Z,23.40
2022-07-31T22:10:53.411Z,23.50
2022-07-31T22:13:24.122Z,23.50
2022-07-31T22:15:59.675Z,23.30
2022-07-31T22:18:35.669Z,23.30
2022-07-31T22:21:08.914Z,23.30
2022-07-31T22:23:39.695Z,23.30
2022-07-31T22:26:10.611Z,23.30
2022-07-31T22:28:41.908Z,23.40
2022-07-31T22:31:15.638Z,23.40
2022-07-31T22:33:46.284Z,23.40
2022-07-31T22:36:16.740Z,23.30
2022-07-31T22:38:48.155Z,23.30
2022-07-31T22:41:18.571Z,23.30
2022-07-31T22:44:13.153Z,23.30
2022-07-31T22:46:42.866Z,23.30
2022-07-31T22:49:13.508Z,23.30
2022-07-31T22:51:46.626Z,23.30
2022-07-31T22:54:17.288Z,23.30
2022-07-31T22:56:47.584Z,23.40
2022-07-31T22:59:17.891Z,23.40
2022-07-31T23:01:50.961Z,23.30
2022-07-31T23:04:21.251Z,23.30
2022-07-31T23:06:51.703Z,23.30
2022-07-31T23:09:22.409Z,23.30
2022-07-31T23:11:52.875Z,23.30
2022-07-31T23:14:23.328Z,23.20
2022-07-31T23:16:56.309Z,23.20
2022-07-31T23:19:27.030Z,23.20
2022-07-31T23:21:57.404Z,23.20
2022-07-31T23:24:27.698Z,23.20
2022-07-31T23:26:58.134Z,23.20
2022-07-31T23:29:28.460Z,23.20
2022-07-31T23:32:05.399Z,23.20
2022-07-31T23:34:37.686Z,23.10
2022-07-31T23:37:09.441Z,23.10
2022-07-31T23:39:40.115Z,23.10
2022-07-31T23:42:22.963Z,23.00
2022-07-31T23:44:53.293Z,23.00
2022-07-31T23:47:34.020Z,23.10
2022-07-31T23:50:17.554Z,23.00
2022-07-31T23:52:48.286Z,23.00
2022-07-31T23:55:18.487Z,23.00
2022-07-31T23:57:49.255Z,23.10
